Terminal Aerodrome Forecast
Issued by NWS Twin Cities, MN

Home | Current Version | Previous Version | Graphics & Text | Print | Product List | Glossary On
Versions: 1 2 3 4 5 6 7 8 9 10 11 12 13 14 15 16 17 18 19 20 21 22 23 24 25 26 27 28 29
000
FTUS43 KMPX 010245 AAA
TAFMSP
TAF AMD
KMSP 010245Z 0103/0206 18006KT P6SM FEW040 BKN250
     FM011200 19005KT P6SM SCT120 BKN200
     FM011900 19008G15KT P6SM SCT040 BKN200
     FM020100 18004KT P6SM SCT150 BKN200=

USA.gov is the U.S. government's official web portal to all federal, state and local government web resources and services.